チュニス・カルタゴ国際空港の過去48時間の天気

チュニス・カルタゴ国際空港 (Tunis-Carthage)

現在時刻: 1/23 04:25 CET (1/23 03:25 UTC) 以下の時間は現地時間です。

過去48時間のMETAR気象情報
時間 風向 風速(m/s) 視程 気温(℃) 湿度(%) 気圧(hPa) 天気現象
23 04:00 南南東 4 10km以上 14 77 1024
23 03:30 南南東 4 10km以上 14 72 1025
23 03:00 南南東 4 10km以上 14 72 1025
23 02:30 南南東 4 10km以上 14 72 1025
23 02:00 南南東 4 10km以上 14 72 1025
23 01:30 南南東 4 10km以上 14 72 1025
23 01:00 南東 3 10km以上 14 77 1025
23 00:30 南東 4 10km以上 14 77 1025
23 00:00 南東 3 10km以上 14 72 1026
22 23:30 南東 4 10km以上 14 72 1026
22 23:00 南東 3 10km以上 15 72 1026
22 22:30 南東 4 10km以上 14 72 1026
22 22:00 南東 4 10km以上 14 72 1026
22 21:30 南東 3 10km以上 14 72 1026
22 21:00 南東 3 10km以上 14 72 1026
22 20:30 東南東 5 10km以上 14 72 1026
22 20:00 東南東 5 10km以上 14 82 1026
22 19:30 東南東 4 10km以上 15 77 1026
22 19:00 東南東 6 10km以上 15 72 1026
22 18:30 東南東 5 10km以上 15 77 1026
22 18:00 東南東 6 10km以上 15 72 1026
22 17:30 東南東 8 10km以上 16 63 1026
22 17:00 東南東 5 10km以上 16 63 1026
22 16:30 東南東 5 10km以上 17 55 1026
22 16:00 東南東 6 10km以上 17 55 1026
22 15:30 南東 7 10km以上 17 59 1026
22 15:00 東南東 7 10km以上 17 63 1026
22 14:30 東南東 8 10km以上 18 60 1026
22 14:00 東南東 8 10km以上 18 60 1027
22 13:30 東南東 8 10km以上 18 60 1027
22 13:00 東南東 7 10km以上 18 60 1028
22 12:30 南東 7 10km以上 18 60 1028
22 12:00 南東 6 10km以上 17 68 1029
22 11:30 南東 6 10km以上 17 63 1029
22 11:00 南東 5 10km以上 18 60 1030
22 10:30 南東 7 10km以上 18 60 1030
22 10:00 南東 5 10km以上 17 63 1030
22 09:30 南東 5 10km以上 17 63 1030
22 09:00 東南東 4 10km以上 16 63 1029
22 08:30 東南東 5 10km以上 16 68 1029
22 08:00 南東 5 10km以上 15 72 1029
22 07:30 南東 6 10km以上 15 72 1029
22 07:00 東南東 6 10km以上 15 67 1029
22 06:30 南東 6 10km以上 16 63 1029
22 06:00 東南東 4 10km以上 16 63 1028
22 05:00 南東 5 10km以上 16 63 1028
22 04:30 南東 6 10km以上 16 63 1028
22 04:00 南東 4 10km以上 16 63 1028
22 03:30 南東 6 10km以上 16 63 1028
22 03:00 南東 5 10km以上 16 68 1028
22 02:30 南東 9 10km以上 16 63 1029
22 02:00 東南東 7 10km以上 16 63 1029
22 01:30 南東 8 10km以上 16 63 1028
22 01:00 東南東 7 10km以上 16 63 1028
22 00:30 東南東 7 10km以上 16 63 1029
22 00:00 東南東 8 10km以上 16 68 1029
21 23:30 東南東 8 10km以上 16 68 1029
21 23:00 東南東 9 10km以上 16 72 1029
21 22:30 東南東 9 10km以上 16 68 1029
21 22:00 東南東 8 10km以上 16 68 1029
21 21:30 5 10km以上 16 72 1028
21 21:00 5 10km以上 15 77 1028
21 20:30 南東 5 10km以上 15 77 1029
DTTA 230300Z 15008KT 9999 FEW030 SCT040 14/10 Q1024
DTTA 230230Z 15007KT 9999 FEW030 SCT040 14/09 Q1025
DTTA 230200Z 15007KT 120V180 9999 FEW030 SCT040 14/09 Q1025
DTTA 230130Z 15007KT 9999 FEW030 SCT040 14/09 Q1025
DTTA 230100Z 15008KT 9999 FEW030 SCT040 14/09 Q1025
DTTA 230030Z 15008KT 9999 FEW030 14/09 Q1025
DTTA 230000Z 14005KT 9999 FEW030 14/10 Q1025
DTTA 222330Z 13007KT 9999 FEW026 14/10 Q1025
DTTA 222300Z 13006KT 9999 FEW026 14/09 Q1026
DTTA 222230Z 14007KT 100V170 9999 FEW026 14/09 Q1026
DTTA 222200Z 13005KT 090V170 9999 FEW026 15/10 Q1026
DTTA 222130Z 13007KT 100V160 9999 FEW026 14/09 Q1026
DTTA 222100Z 14007KT 9999 FEW026 14/09 Q1026
DTTA 222030Z 14005KT 9999 FEW026 14/09 Q1026
DTTA 222000Z 14006KT 100V160 9999 FEW026 14/09 Q1026
DTTA 221930Z 12010KT 090V150 9999 FEW026 14/09 Q1026
DTTA 221900Z 12009KT 090V160 9999 FEW026 14/11 Q1026
DTTA 221830Z 12008KT 070V160 9999 FEW026 15/11 Q1026
DTTA 221800Z 12011KT 090V160 9999 FEW026 15/10 Q1026
DTTA 221730Z 12009KT 080V170 9999 FEW026 15/11 Q1026
DTTA 221700Z 12011KT 070V150 9999 FEW026 15/10 Q1026
DTTA 221630Z 12015KT 080V150 9999 FEW026 16/09 Q1026
DTTA 221600Z 12010KT 070V160 9999 SCT026 16/09 Q1026
DTTA 221530Z 12009KT 060V160 9999 SCT026 17/08 Q1026
DTTA 221500Z 12012KT 070V150 9999 SCT026 17/08 Q1026
DTTA 221430Z 13014G24KT 100V170 9999 SCT026 17/09 Q1026
DTTA 221400Z 12013KT 090V150 9999 SCT026TCU 17/10 Q1026
DTTA 221330Z 12015KT 090V160 9999 SCT026TCU 18/10 Q1026
DTTA 221300Z 12016KT 080V140 9999 SCT026TCU BKN033 18/10 Q1027
DTTA 221230Z 12016KT 080V160 9999 SCT026TCU BKN033 18/10 Q1027
DTTA 221200Z 12013KT 090V180 9999 SCT026TCU BKN033 18/10 Q1028
DTTA 221130Z 13014KT 100V160 9999 SCT026TCU BKN033 18/10 Q1028
DTTA 221100Z 13012KT 100V160 9999 SCT023TCU BKN033 17/11 Q1029
DTTA 221030Z 13012G23KT 100V160 9999 SCT023TCU BKN033 17/10 Q1029
DTTA 221000Z 14009KT 110V170 9999 SCT023TCU 18/10 Q1030
DTTA 220930Z 14013KT 110V170 9999 SCT023TCU 18/10 Q1030
DTTA 220900Z 13009KT 100V170 9999 SCT023TCU 17/10 Q1030
DTTA 220830Z 13010KT 090V150 9999 SCT023TCU 17/10 Q1030
DTTA 220800Z 12007KT 030V160 9999 SCT023 16/09 Q1029
DTTA 220730Z 12009KT 080V150 9999 SCT023 16/10 Q1029
DTTA 220700Z 13010KT 9999 SCT023 15/10 Q1029
DTTA 220630Z 13011KT 100V170 9999 SCT023 15/10 Q1029
DTTA 220600Z 12011KT 090V160 9999 SCT023 15/09 Q1029
DTTA 220530Z 13012KT 090V150 9999 SCT023 16/09 Q1029
DTTA 220500Z 12008KT 060V160 9999 SCT023 16/09 Q1028
DTTA 220400Z 13009KT 100V160 9999 SCT023 16/09 Q1028
DTTA 220330Z 14011KT 9999 SCT023 16/09 Q1028
DTTA 220300Z 13008KT 100V170 9999 SCT023 16/09 Q1028
DTTA 220230Z 14011KT 9999 SCT023 16/09 Q1028
DTTA 220200Z 14010KT 9999 SCT023 16/10 Q1028
DTTA 220130Z 13017KT 9999 FEW023 16/09 Q1029
DTTA 220100Z 12014KT 9999 FEW023 16/09 Q1029
DTTA 220030Z 13015KT 9999 FEW023 16/09 Q1028
DTTA 220000Z 12014KT 9999 FEW023 16/09 Q1028
DTTA 212330Z 12014KT 9999 FEW023 16/09 Q1029
DTTA 212300Z 12015KT 9999 FEW023 16/10 Q1029
DTTA 212230Z 12016KT 9999 FEW023 16/10 Q1029
DTTA 212200Z 11017KT 9999 FEW023 16/11 Q1029
DTTA 212130Z 11018G28KT 9999 FEW023 16/10 Q1029
DTTA 212100Z 11015KT 9999 FEW023 16/10 Q1029
DTTA 212030Z 17010KT 120V220 9999 FEW023 16/11 Q1028
DTTA 212000Z 17009KT 110V240 9999 FEW023 15/11 Q1028
DTTA 211930Z 13009KT 100V170 9999 FEW023 15/11 Q1029